Time;durP1;ratioP1;P1;durP2;ratioP2;P2;SDS_P1;SDS_P2;PMS_P1;PMS_P2;Temp;Humidity;BMP_temperature;BMP_pressure;BME280_temperature;BME280_humidity;BME280_pressure;Samples;Min_cycle;Max_cycle;Signal;HPM_P1;HPM_P2
2023/04/19 00:01:25;;;;;;;10.02;6.65;;;8.30;99.90;;;;;;5096082;28;20052;-80
2023/04/19 00:03:50;;;;;;;8.65;5.82;;;8.30;99.90;;;;;;5097022;28;20047;-80
2023/04/19 00:06:16;;;;;;;10.57;7.38;;;8.30;99.90;;;;;;5096226;28;20154;-81
2023/04/19 00:08:42;;;;;;;9.75;6.38;;;8.20;99.90;;;;;;5095784;28;20497;-80
2023/04/19 00:11:09;;;;;;;9.55;6.53;;;8.20;99.90;;;;;;5096034;28;20058;-80
2023/04/19 00:13:35;;;;;;;10.15;6.88;;;8.10;99.90;;;;;;5096879;28;20395;-80
2023/04/19 00:16:01;;;;;;;10.55;7.20;;;8.10;99.90;;;;;;5097018;28;20047;-80
2023/04/19 00:18:27;;;;;;;10.57;7.22;;;8.10;99.90;;;;;;5096975;28;20115;-80
2023/04/19 00:20:53;;;;;;;12.60;7.18;;;8.10;99.90;;;;;;5096950;28;20463;-79
2023/04/19 00:23:18;;;;;;;11.95;7.80;;;8.10;99.90;;;;;;5096609;28;20040;-80
2023/04/19 00:25:48;;;;;;;12.70;7.75;;;8.00;99.90;;;;;;5096898;28;20044;-80
2023/04/19 00:28:14;;;;;;;11.93;8.02;;;8.10;99.90;;;;;;5096753;28;20047;-80
2023/04/19 00:30:39;;;;;;;11.63;7.50;;;8.00;99.90;;;;;;5095750;28;20040;-80
2023/04/19 00:33:11;;;;;;;11.10;7.68;;;8.10;99.90;;;;;;5096608;28;20078;-80
2023/04/19 00:35:43;;;;;;;12.00;7.38;;;8.10;99.90;;;;;;5096539;28;20522;-80
2023/04/19 00:38:10;;;;;;;11.98;7.35;;;8.10;99.90;;;;;;5096739;28;20101;-81
2023/04/19 00:40:36;;;;;;;11.88;7.95;;;8.20;99.90;;;;;;5095485;28;20107;-81
2023/04/19 00:43:02;;;;;;;11.65;8.10;;;8.20;99.90;;;;;;5096581;28;20083;-80
2023/04/19 00:45:28;;;;;;;12.65;7.93;;;8.20;99.90;;;;;;5095237;28;20082;-80
2023/04/19 00:47:54;;;;;;;11.55;8.13;;;8.20;99.90;;;;;;5095403;28;20078;-80
2023/04/19 00:50:21;;;;;;;13.32;8.65;;;8.30;99.90;;;;;;5095025;28;20101;-80
2023/04/19 00:52:47;;;;;;;14.43;9.52;;;8.30;99.90;;;;;;5096230;28;20044;-80
2023/04/19 00:55:13;;;;;;;15.57;10.73;;;8.40;99.90;;;;;;5096181;28;20544;-80
2023/04/19 00:57:39;;;;;;;19.65;10.32;;;8.50;99.90;;;;;;5096173;28;20060;-80
2023/04/19 01:00:07;;;;;;;14.30;10.68;;;8.50;99.90;;;;;;5095872;28;20068;-80
2023/04/19 01:02:33;;;;;;;16.05;10.65;;;8.50;99.90;;;;;;5078337;28;20056;-80
2023/04/19 01:04:59;;;;;;;15.50;10.40;;;8.50;99.90;;;;;;5095675;28;20044;-80
2023/04/19 01:07:25;;;;;;;13.38;9.40;;;8.50;99.90;;;;;;5095935;28;20040;-80
2023/04/19 01:09:50;;;;;;;18.08;10.45;;;8.50;99.90;;;;;;5096010;28;20484;-80
2023/04/19 01:12:16;;;;;;;16.10;11.10;;;8.50;99.90;;;;;;5095926;28;20466;-80
2023/04/19 01:14:42;;;;;;;17.85;10.38;;;8.40;99.90;;;;;;5095809;28;20452;-80
2023/04/19 01:17:08;;;;;;;15.75;11.25;;;8.40;99.90;;;;;;5095619;28;20123;-80
2023/04/19 01:19:35;;;;;;;17.35;11.18;;;8.40;99.90;;;;;;5094651;28;20127;-80
2023/04/19 01:22:03;;;;;;;18.08;11.10;;;8.40;99.90;;;;;;5095524;28;20048;-80
2023/04/19 01:24:31;;;;;;;15.77;11.15;;;8.30;99.90;;;;;;5095803;28;20384;-80
2023/04/19 01:26:56;;;;;;;16.63;11.40;;;8.30;99.90;;;;;;5095662;28;20040;-80
2023/04/19 01:29:22;;;;;;;16.90;11.27;;;8.30;99.90;;;;;;5095540;28;20051;-80
2023/04/19 01:31:52;;;;;;;15.23;11.45;;;8.30;99.90;;;;;;5096061;28;20071;-80
2023/04/19 01:34:18;;;;;;;16.80;10.98;;;8.20;99.90;;;;;;5096547;28;20040;-80
2023/04/19 01:36:44;;;;;;;17.08;11.82;;;8.20;99.90;;;;;;5095448;28;20074;-81
2023/04/19 01:39:10;;;;;;;15.27;10.55;;;8.20;99.90;;;;;;5095440;28;20080;-81
2023/04/19 01:41:36;;;;;;;16.38;11.02;;;8.20;99.90;;;;;;5095392;28;20055;-81
2023/04/19 01:44:02;;;;;;;15.05;9.48;;;8.20;99.90;;;;;;5095070;28;20048;-80
2023/04/19 01:46:28;;;;;;;16.92;11.60;;;8.20;99.90;;;;;;5094131;28;20044;-81
2023/04/19 01:48:53;;;;;;;19.40;10.80;;;8.10;99.90;;;;;;5095164;28;20189;-81
2023/04/19 01:51:20;;;;;;;16.10;11.48;;;8.10;99.90;;;;;;5095453;28;20051;-80
2023/04/19 01:53:51;;;;;;;18.75;11.50;;;8.10;99.90;;;;;;5095145;28;20043;-81
2023/04/19 01:56:17;;;;;;;16.55;11.15;;;8.00;99.90;;;;;;5094923;28;20040;-80
2023/04/19 01:58:42;;;;;;;16.00;10.68;;;8.00;99.90;;;;;;5093614;28;20055;-80
2023/04/19 02:01:11;;;;;;;15.27;10.93;;;8.00;99.90;;;;;;5095637;28;20035;-80
2023/04/19 02:03:40;;;;;;;16.58;10.32;;;7.90;99.90;;;;;;5095004;28;20047;-80
2023/04/19 02:06:11;;;;;;;14.57;9.85;;;7.90;99.90;;;;;;5093458;28;20089;-80
2023/04/19 02:08:37;;;;;;;14.52;9.60;;;7.90;99.90;;;;;;5094945;28;20032;-80
2023/04/19 02:11:15;;;;;;;15.38;10.93;;;7.90;99.90;;;;;;5094796;28;20066;-80
2023/04/19 02:13:41;;;;;;;25.40;10.32;;;7.90;99.90;;;;;;5093440;28;20056;-80
2023/04/19 02:16:09;;;;;;;14.18;9.50;;;7.90;99.90;;;;;;5094582;28;20379;-80
2023/04/19 02:18:37;;;;;;;15.10;9.95;;;7.80;99.90;;;;;;5094035;28;20071;-81
2023/04/19 02:21:04;;;;;;;12.95;9.43;;;7.80;99.90;;;;;;5093447;28;20048;-81
2023/04/19 02:23:31;;;;;;;14.50;9.18;;;7.70;99.90;;;;;;5094184;28;20056;-80
2023/04/19 02:25:57;;;;;;;15.38;9.25;;;7.70;99.90;;;;;;5093060;28;20395;-80
2023/04/19 02:28:23;;;;;;;13.60;8.93;;;7.70;99.90;;;;;;5094530;28;20123;-81
2023/04/19 02:30:48;;;;;;;12.75;8.68;;;7.60;99.90;;;;;;5093154;28;20043;-80
2023/04/19 02:33:14;;;;;;;13.80;8.48;;;7.60;99.90;;;;;;5094374;28;20044;-80
2023/04/19 02:35:40;;;;;;;15.25;9.05;;;7.50;99.90;;;;;;5094421;28;20395;-81
2023/04/19 02:38:06;;;;;;;13.32;9.18;;;7.50;99.90;;;;;;5094340;28;20044;-81
2023/04/19 02:40:31;;;;;;;14.40;9.55;;;7.40;99.90;;;;;;5094340;28;20032;-81
2023/04/19 02:42:57;;;;;;;11.73;8.55;;;7.40;99.90;;;;;;5094306;28;20044;-80
2023/04/19 02:45:23;;;;;;;13.90;9.43;;;7.30;99.90;;;;;;5094054;28;20036;-81
2023/04/19 02:47:48;;;;;;;16.30;8.60;;;7.30;99.90;;;;;;5094159;28;20144;-81
2023/04/19 02:50:15;;;;;;;15.73;8.88;;;7.30;99.90;;;;;;5094159;28;20036;-80
2023/04/19 02:52:41;;;;;;;13.15;8.93;;;7.30;99.90;;;;;;5094048;28;20036;-80
2023/04/19 02:55:07;;;;;;;13.60;8.80;;;7.20;99.90;;;;;;5094168;28;20040;-80
2023/04/19 02:57:33;;;;;;;16.23;9.57;;;7.20;99.90;;;;;;5093829;28;20547;-80
2023/04/19 02:59:59;;;;;;;12.02;8.45;;;7.20;99.90;;;;;;5094081;28;20079;-80
2023/04/19 03:02:24;;;;;;;15.25;8.80;;;7.20;99.90;;;;;;5094036;28;20080;-81
2023/04/19 03:04:51;;;;;;;14.48;9.35;;;7.20;99.90;;;;;;5094026;28;20040;-81
2023/04/19 03:07:17;;;;;;;15.35;9.10;;;7.10;99.90;;;;;;5093872;28;20059;-81
2023/04/19 03:09:43;;;;;;;12.95;8.77;;;7.10;99.90;;;;;;5093962;28;20105;-81
2023/04/19 03:12:09;;;;;;;16.27;9.70;;;7.10;99.90;;;;;;5093665;28;20040;-81
2023/04/19 03:14:35;;;;;;;11.95;9.07;;;7.10;99.90;;;;;;5093736;28;20044;-81
2023/04/19 03:17:00;;;;;;;12.68;8.90;;;7.00;99.90;;;;;;5093851;28;20076;-80
2023/04/19 03:19:26;;;;;;;12.55;8.55;;;7.00;99.90;;;;;;5093799;28;20047;-80
2023/04/19 03:21:53;;;;;;;14.13;8.55;;;7.00;99.90;;;;;;5092293;28;20094;-81
2023/04/19 03:24:28;;;;;;;12.68;8.38;;;6.90;99.90;;;;;;5093809;28;20044;-80
2023/04/19 03:26:54;;;;;;;13.82;9.23;;;6.90;99.90;;;;;;5093862;28;20206;-81
2023/04/19 03:29:19;;;;;;;12.68;9.30;;;6.90;99.90;;;;;;5095740;28;20044;-81
2023/04/19 03:31:46;;;;;;;10.35;7.68;;;6.90;99.90;;;;;;5097916;28;20044;-80
2023/04/19 03:34:12;;;;;;;12.77;8.15;;;6.90;99.90;;;;;;5097794;28;20048;-80
2023/04/19 03:36:39;;;;;;;14.63;8.35;;;6.80;99.90;;;;;;5096325;28;20044;-81
2023/04/19 03:39:05;;;;;;;10.50;8.15;;;6.90;99.90;;;;;;5097790;28;20118;-80
2023/04/19 03:41:30;;;;;;;14.38;8.57;;;6.80;99.90;;;;;;5097748;28;20047;-81
2023/04/19 03:43:59;;;;;;;15.82;8.52;;;6.80;99.90;;;;;;5097815;28;20028;-81
2023/04/19 03:46:25;;;;;;;13.15;8.40;;;6.80;99.90;;;;;;5097809;28;20051;-80
2023/04/19 03:48:52;;;;;;;11.95;7.80;;;6.80;99.90;;;;;;5097450;28;20048;-81
2023/04/19 03:51:18;;;;;;;13.68;8.57;;;6.70;99.90;;;;;;5097325;28;20499;-81
2023/04/19 03:53:43;;;;;;;12.50;8.52;;;6.70;99.90;;;;;;5097464;28;20113;-81
2023/04/19 03:56:09;;;;;;;10.63;7.57;;;6.70;99.90;;;;;;5097394;28;20032;-81
2023/04/19 03:58:36;;;;;;;13.93;8.13;;;6.70;99.90;;;;;;5096097;28;20040;-81
2023/04/19 04:01:02;;;;;;;11.65;7.47;;;6.70;99.90;;;;;;5097363;28;20040;-81
2023/04/19 04:03:27;;;;;;;10.70;6.82;;;6.60;99.90;;;;;;5097407;28;20044;-80
2023/04/19 04:05:53;;;;;;;12.95;7.97;;;6.70;99.90;;;;;;5097224;28;20046;-81
2023/04/19 04:08:19;;;;;;;15.40;7.82;;;6.70;99.90;;;;;;5097259;28;20044;-80
2023/04/19 04:10:44;;;;;;;11.57;6.63;;;6.70;99.90;;;;;;5096996;28;20032;-80
2023/04/19 04:13:10;;;;;;;11.70;7.85;;;6.70;99.90;;;;;;5097056;28;20054;-80
2023/04/19 04:15:36;;;;;;;11.25;6.45;;;6.70;99.90;;;;;;5096828;28;20118;-80
2023/04/19 04:18:01;;;;;;;9.10;5.38;;;6.60;99.90;;;;;;5096728;28;20040;-80
2023/04/19 04:20:27;;;;;;;11.32;6.68;;;6.70;99.90;;;;;;5095609;28;20165;-80
2023/04/19 04:22:54;;;;;;;14.07;5.95;;;6.70;99.90;;;;;;5095646;28;20418;-80
2023/04/19 04:25:21;;;;;;;10.63;6.53;;;6.60;99.90;;;;;;5096721;28;20421;-81
2023/04/19 04:27:50;;;;;;;11.27;7.10;;;6.60;99.90;;;;;;5096781;28;20123;-81
2023/04/19 04:30:16;;;;;;;9.85;6.18;;;6.50;99.90;;;;;;5095658;28;20123;-81
2023/04/19 04:32:43;;;;;;;10.77;5.75;;;6.60;99.90;;;;;;5096524;28;20118;-80
2023/04/19 04:35:10;;;;;;;8.77;5.55;;;6.50;99.90;;;;;;5096635;28;20101;-80
2023/04/19 04:37:36;;;;;;;9.27;5.93;;;6.50;99.90;;;;;;5096521;28;20040;-80
2023/04/19 04:40:06;;;;;;;10.82;5.40;;;6.50;99.90;;;;;;5094377;28;20056;-80
2023/04/19 04:42:32;;;;;;;9.68;5.05;;;6.50;99.90;;;;;;5096544;28;20039;-80
2023/04/19 04:45:00;;;;;;;8.63;5.20;;;6.40;99.90;;;;;;5096152;28;20101;-80
2023/04/19 04:47:31;;;;;;;8.63;5.20;;;6.40;99.90;;;;;;5096389;28;20040;-80
2023/04/19 04:49:57;;;;;;;8.85;5.65;;;6.40;99.90;;;;;;5096299;28;20115;-80
2023/04/19 04:52:23;;;;;;;9.07;6.15;;;6.40;99.90;;;;;;5095984;28;20130;-80
2023/04/19 04:54:48;;;;;;;9.55;4.60;;;6.40;99.90;;;;;;5094773;28;20131;-80
2023/04/19 04:57:14;;;;;;;8.05;4.85;;;6.30;99.90;;;;;;5094996;28;20044;-79
2023/04/19 04:59:40;;;;;;;12.13;6.45;;;6.30;99.90;;;;;;5096160;28;20040;-79
2023/04/19 05:02:05;;;;;;;7.22;4.82;;;6.30;99.90;;;;;;5094636;28;20040;-80
2023/04/19 05:04:31;;;;;;;12.32;5.28;;;6.30;99.90;;;;;;5096091;28;20047;-80
2023/04/19 05:06:57;;;;;;;9.93;5.82;;;6.30;99.90;;;;;;5095934;28;20036;-80
2023/04/19 05:09:22;;;;;;;9.20;4.72;;;6.30;99.90;;;;;;5095855;28;20040;-80
2023/04/19 05:11:48;;;;;;;9.30;4.35;;;6.30;99.90;;;;;;5094380;28;20166;-80
2023/04/19 05:14:13;;;;;;;8.93;4.63;;;6.40;99.90;;;;;;5095413;28;20044;-80
2023/04/19 05:16:39;;;;;;;7.68;4.35;;;6.40;99.90;;;;;;5095890;28;20044;-80
2023/04/19 05:19:05;;;;;;;8.40;5.45;;;6.50;99.90;;;;;;5094540;28;20131;-80
2023/04/19 05:21:33;;;;;;;7.10;4.68;;;6.50;99.90;;;;;;5095704;28;20040;-80
2023/04/19 05:23:58;;;;;;;9.02;4.63;;;6.50;99.90;;;;;;5095378;28;20063;-80
2023/04/19 05:26:24;;;;;;;7.85;4.38;;;6.60;99.90;;;;;;5095471;28;20052;-80
2023/04/19 05:28:50;;;;;;;8.07;4.40;;;6.70;99.90;;;;;;5095429;28;20059;-80
2023/04/19 05:31:15;;;;;;;6.32;4.35;;;6.80;99.90;;;;;;5095617;28;20040;-80
2023/04/19 05:33:41;;;;;;;6.97;4.53;;;6.90;99.90;;;;;;5094014;28;20086;-80
2023/04/19 05:36:07;;;;;;;7.15;4.32;;;7.00;99.90;;;;;;5094292;28;20474;-80
2023/04/19 05:38:32;;;;;;;9.10;4.40;;;7.00;99.90;;;;;;5095194;28;20044;-80
2023/04/19 05:40:58;;;;;;;7.70;4.22;;;7.10;99.90;;;;;;5093871;28;20083;-80
2023/04/19 05:43:24;;;;;;;7.00;4.70;;;7.10;99.90;;;;;;5095118;28;20044;-80
2023/04/19 05:45:49;;;;;;;8.00;4.75;;;7.30;99.90;;;;;;5094975;28;20072;-80
2023/04/19 05:48:15;;;;;;;9.02;4.82;;;7.30;99.90;;;;;;5095203;28;20112;-80
2023/04/19 05:50:41;;;;;;;7.28;4.53;;;7.40;99.90;;;;;;5095153;28;20070;-81
2023/04/19 05:53:06;;;;;;;7.05;4.72;;;7.50;99.90;;;;;;5093802;28;20146;-80
2023/04/19 05:55:32;;;;;;;7.43;3.72;;;7.50;99.90;;;;;;5095110;28;20536;-80
2023/04/19 05:57:58;;;;;;;8.98;4.50;;;7.70;99.90;;;;;;5094665;28;20498;-81
2023/04/19 06:00:24;;;;;;;10.07;3.90;;;7.70;99.90;;;;;;5094897;28;20718;-81
2023/04/19 06:02:49;;;;;;;6.55;3.70;;;7.80;99.90;;;;;;5095183;28;20141;-81
2023/04/19 06:05:15;;;;;;;8.65;3.88;;;8.00;99.90;;;;;;5094742;28;20032;-81
2023/04/19 06:07:41;;;;;;;12.75;4.32;;;8.20;99.90;;;;;;5094821;28;20047;-80
2023/04/19 06:10:07;;;;;;;6.78;4.18;;;8.20;99.90;;;;;;5094532;28;20054;-79
2023/04/19 06:12:33;;;;;;;5.75;3.47;;;8.20;99.90;;;;;;5093153;28;20052;-80
2023/04/19 06:14:58;;;;;;;6.45;3.58;;;8.40;99.90;;;;;;5094680;28;20046;-80
2023/04/19 06:17:24;;;;;;;7.10;4.13;;;8.40;99.90;;;;;;5094718;28;20040;-80
2023/04/19 06:19:50;;;;;;;6.78;3.88;;;8.40;99.90;;;;;;5093247;28;20444;-80
2023/04/19 06:22:18;;;;;;;6.90;3.80;;;8.50;99.90;;;;;;5094391;28;20055;-80
2023/04/19 06:24:44;;;;;;;6.97;3.05;;;8.70;99.90;;;;;;5094402;28;20055;-80
2023/04/19 06:27:10;;;;;;;6.07;3.67;;;8.70;99.90;;;;;;5094498;28;20032;-80
2023/04/19 06:29:36;;;;;;;8.63;3.28;;;8.80;99.90;;;;;;5094234;28;20133;-80
2023/04/19 06:32:02;;;;;;;7.32;3.67;;;8.90;99.90;;;;;;5094211;28;20047;-78
2023/04/19 06:34:27;;;;;;;8.70;4.70;;;9.00;99.90;;;;;;5092917;28;20123;-79
2023/04/19 06:36:53;;;;;;;6.72;3.60;;;9.00;99.90;;;;;;5093813;28;20051;-79
2023/04/19 06:39:19;;;;;;;6.13;3.15;;;9.20;99.90;;;;;;5092544;28;20116;-79
2023/04/19 06:41:45;;;;;;;5.47;3.22;;;9.30;99.90;;;;;;5093900;28;20123;-79
2023/04/19 06:44:12;;;;;;;6.95;3.40;;;9.30;99.90;;;;;;5093953;28;20036;-81
2023/04/19 06:46:38;;;;;;;5.47;3.13;;;9.10;99.90;;;;;;5093950;28;20131;-81
2023/04/19 06:49:04;;;;;;;6.85;3.45;;;9.30;99.90;;;;;;5093648;28;20487;-89
2023/04/19 06:51:29;;;;;;;6.75;3.67;;;9.30;99.90;;;;;;5093933;28;20135;-81
2023/04/19 06:53:55;;;;;;;8.15;3.17;;;9.10;99.90;;;;;;5093556;28;20394;-81
2023/04/19 06:56:46;;;;;;;5.28;3.00;;;9.30;99.90;;;;;;5093578;28;20040;-85
2023/04/19 06:59:18;;;;;;;5.97;3.35;;;9.50;99.90;;;;;;5081860;28;20039;-81
2023/04/19 07:01:44;;;;;;;6.18;3.42;;;9.60;99.90;;;;;;5126548;27;20047;-82
2023/04/19 07:04:10;;;;;;;5.28;3.13;;;9.60;99.90;;;;;;5093250;28;20040;-79
2023/04/19 07:06:37;;;;;;;5.57;3.17;;;9.80;99.90;;;;;;5092026;28;20073;-78
2023/04/19 07:09:04;;;;;;;4.93;2.95;;;9.80;99.90;;;;;;5093222;28;20115;-80
2023/04/19 07:11:30;;;;;;;6.85;3.20;;;9.80;99.90;;;;;;5093708;28;20035;-85
2023/04/19 07:13:56;;;;;;;6.97;3.13;;;9.90;99.90;;;;;;5093179;28;20394;-89
2023/04/19 07:16:22;;;;;;;6.60;2.78;;;10.00;99.90;;;;;;5091918;28;20047;-81
2023/04/19 07:18:47;;;;;;;5.53;3.00;;;10.20;99.90;;;;;;5093200;28;20044;-81
2023/04/19 07:21:14;;;;;;;8.25;3.28;;;10.30;99.90;;;;;;5093280;28;20072;-81
2023/04/19 07:23:39;;;;;;;6.28;3.25;;;10.40;99.90;;;;;;5092875;28;20059;-79
2023/04/19 07:26:07;;;;;;;3.92;2.53;;;10.30;99.90;;;;;;5093317;28;20127;-81
2023/04/19 07:28:32;;;;;;;4.78;2.47;;;10.30;99.90;;;;;;5093348;28;20127;-79
2023/04/19 07:30:59;;;;;;;4.50;2.97;;;10.20;99.90;;;;;;5093499;28;20072;-81
2023/04/19 07:33:26;;;;;;;6.03;2.42;;;10.20;99.90;;;;;;5093080;28;20051;-80
2023/04/19 07:35:53;;;;;;;6.00;2.55;;;10.30;99.90;;;;;;5092913;28;20489;-80
2023/04/19 07:38:18;;;;;;;5.03;2.40;;;10.60;99.90;;;;;;5093340;28;20105;-87
2023/04/19 07:40:44;;;;;;;5.55;2.45;;;10.60;99.90;;;;;;5093159;28;20036;-81
2023/04/19 07:43:10;;;;;;;5.50;2.40;;;10.50;99.90;;;;;;5093467;28;20052;-82
2023/04/19 07:45:36;;;;;;;3.35;2.22;;;10.50;99.90;;;;;;5093059;28;20052;-82
2023/04/19 07:48:01;;;;;;;3.42;1.92;;;10.40;99.90;;;;;;5093378;28;20043;-83
2023/04/19 07:50:27;;;;;;;4.10;2.20;;;10.50;99.90;;;;;;5125801;28;20054;-82
2023/04/19 07:52:53;;;;;;;3.50;2.00;;;10.40;99.90;;;;;;5093181;28;20073;-85
2023/04/19 07:55:19;;;;;;;3.92;1.83;;;10.60;99.90;;;;;;5092030;28;20051;-81
2023/04/19 07:57:47;;;;;;;4.45;1.92;;;10.80;99.90;;;;;;5091855;28;20123;-80
2023/04/19 08:00:20;;;;;;;3.58;1.85;;;10.70;99.90;;;;;;5092969;28;20182;-83
2023/04/19 08:02:47;;;;;;;4.60;1.80;;;10.70;99.90;;;;;;5093009;28;20044;-82
2023/04/19 08:05:17;;;;;;;3.95;2.00;;;10.60;99.90;;;;;;5092863;28;20059;-82
2023/04/19 08:07:44;;;;;;;3.35;1.75;;;10.90;99.90;;;;;;5093317;28;20052;-82
2023/04/19 08:10:10;;;;;;;4.60;2.03;;;11.10;99.90;;;;;;5092834;28;20044;-82
2023/04/19 08:12:36;;;;;;;11.63;4.05;;;11.20;99.90;;;;;;5092872;28;20044;-83
2023/04/19 08:15:07;;;;;;;4.28;1.60;;;11.30;99.90;;;;;;5092958;28;20053;-83
2023/04/19 08:17:33;;;;;;;5.43;2.17;;;11.40;99.90;;;;;;5096893;28;20123;-83
2023/04/19 08:20:00;;;;;;;9.70;2.17;;;11.20;99.90;;;;;;5095831;28;20044;-83
2023/04/19 08:22:29;;;;;;;6.95;2.42;;;11.10;99.90;;;;;;5096479;28;20056;-83
2023/04/19 08:24:55;;;;;;;4.03;1.90;;;11.00;99.90;;;;;;5096584;28;20052;-82
2023/04/19 08:27:20;;;;;;;6.85;2.05;;;11.10;99.90;;;;;;5096614;28;20036;-82
2023/04/19 08:29:46;;;;;;;5.22;2.10;;;11.40;99.90;;;;;;5096688;28;20044;-83
2023/04/19 08:32:12;;;;;;;3.85;2.10;;;11.20;99.90;;;;;;5096569;28;20098;-82
2023/04/19 08:34:39;;;;;;;3.90;1.90;;;11.40;99.90;;;;;;5095400;28;20086;-82
2023/04/19 08:37:06;;;;;;;4.35;1.92;;;11.50;99.90;;;;;;5096396;28;20083;-82
2023/04/19 08:39:33;;;;;;;5.60;2.08;;;11.40;99.90;;;;;;5096455;28;20119;-82
2023/04/19 08:42:07;;;;;;;5.75;2.38;;;11.40;99.90;;;;;;5094905;28;20048;-82
2023/04/19 08:44:34;;;;;;;3.28;2.10;;;11.30;99.90;;;;;;5096378;28;20048;-82
2023/04/19 08:47:02;;;;;;;3.50;2.00;;;11.50;99.90;;;;;;5096286;28;20040;-83
2023/04/19 08:49:28;;;;;;;4.70;1.65;;;11.60;99.90;;;;;;5096357;28;20060;-82
2023/04/19 08:51:56;;;;;;;3.70;2.10;;;11.60;99.90;;;;;;5096227;28;20044;-82
2023/04/19 08:54:23;;;;;;;2.88;1.48;;;11.60;99.90;;;;;;5094607;28;20123;-88
2023/04/19 08:56:48;;;;;;;5.90;1.92;;;11.60;99.90;;;;;;5094771;28;20476;-80
2023/04/19 08:59:14;;;;;;;4.80;1.80;;;11.60;99.90;;;;;;5096077;28;20123;-82
2023/04/19 09:01:40;;;;;;;3.95;1.63;;;11.60;99.90;;;;;;5095009;28;20196;-82
2023/04/19 09:04:07;;;;;;;4.57;1.90;;;11.60;99.90;;;;;;5095606;28;20398;-82
2023/04/19 09:06:40;;;;;;;6.20;1.80;;;11.70;99.90;;;;;;5095850;28;20123;-83
2023/04/19 09:09:16;;;;;;;4.03;1.90;;;11.70;99.90;;;;;;5094633;28;20056;-82
2023/04/19 09:11:42;;;;;;;4.97;2.15;;;11.60;99.90;;;;;;5095871;28;20048;-80
2023/04/19 09:14:10;;;;;;;3.42;1.95;;;11.70;99.90;;;;;;5095656;28;20043;-82
2023/04/19 09:16:38;;;;;;;6.70;2.20;;;11.80;99.90;;;;;;5095845;28;20071;-80
2023/04/19 09:19:05;;;;;;;5.18;2.00;;;11.60;99.90;;;;;;5095435;28;20036;-81
2023/04/19 09:21:32;;;;;;;4.20;1.77;;;11.70;99.90;;;;;;5094370;28;20040;-81
2023/04/19 09:23:59;;;;;;;4.82;2.00;;;12.00;99.90;;;;;;5095198;28;20052;-80
2023/04/19 09:26:28;;;;;;;7.90;2.05;;;12.00;99.90;;;;;;5093688;28;20542;-80
2023/04/19 09:29:01;;;;;;;6.28;2.25;;;12.00;99.90;;;;;;5095473;28;20089;-81
2023/04/19 09:31:30;;;;;;;;;;;12.10;99.90;;;;;;5096267;28;20071;-81
2023/04/19 09:33:56;;;;;;;5.28;2.20;;;12.20;99.90;;;;;;5095087;28;19974;-82
2023/04/19 09:36:30;;;;;;;8.38;2.03;;;12.10;99.90;;;;;;5095359;28;20040;-82
2023/04/19 09:38:56;;;;;;;7.15;2.60;;;12.20;99.90;;;;;;5094793;28;20392;-80
2023/04/19 09:41:22;;;;;;;5.05;2.15;;;12.00;99.90;;;;;;5094978;28;20469;-80
2023/04/19 09:43:48;;;;;;;6.80;2.50;;;12.40;99.90;;;;;;5095179;28;20090;-82
2023/04/19 09:46:35;;;;;;;8.18;3.40;;;12.30;99.90;;;;;;5094281;28;20525;-82
2023/04/19 09:49:13;;;;;;;7.25;2.47;;;12.10;99.90;;;;;;5095154;28;20097;-81
2023/04/19 09:51:43;;;;;;;6.00;2.45;;;12.40;99.90;;;;;;5095145;28;20074;-81
2023/04/19 09:54:10;;;;;;;7.60;2.25;;;12.10;99.90;;;;;;5094902;28;20040;-82
2023/04/19 09:56:36;;;;;;;8.20;1.85;;;12.40;99.90;;;;;;5093459;28;20040;-82
2023/04/19 09:59:03;;;;;;;5.60;1.80;;;12.30;99.90;;;;;;5094933;28;20036;-83
2023/04/19 10:01:33;;;;;;;6.28;1.80;;;12.50;99.90;;;;;;5093462;28;20061;-82
2023/04/19 10:03:59;;;;;;;5.47;1.80;;;12.50;99.90;;;;;;5094788;28;20082;-82
2023/04/19 10:06:26;;;;;;;3.95;1.60;;;12.50;99.90;;;;;;5094710;28;20047;-81
2023/04/19 10:08:54;;;;;;;5.72;1.60;;;12.60;99.90;;;;;;5093679;28;20048;-81
2023/04/19 10:11:21;;;;;;;4.78;1.70;;;12.50;99.90;;;;;;5094346;28;20436;-80
2023/04/19 10:13:48;;;;;;;4.80;1.77;;;12.70;99.90;;;;;;5094338;28;20403;-81
2023/04/19 10:16:14;;;;;;;9.18;2.10;;;12.80;99.90;;;;;;5094357;28;20043;-81
2023/04/19 10:18:40;;;;;;;9.20;1.60;;;13.00;99.90;;;;;;5094479;28;20484;-81
2023/04/19 10:21:08;;;;;;;4.25;1.58;;;13.10;99.90;;;;;;5094448;28;20047;-81
2023/04/19 10:23:41;;;;;;;4.35;1.13;;;12.90;99.90;;;;;;5094035;28;20392;-81
2023/04/19 10:26:06;;;;;;;2.75;1.17;;;12.60;99.90;;;;;;5094469;28;20114;-81
2023/04/19 10:28:35;;;;;;;2.22;1.13;;;12.60;99.90;;;;;;5094447;28;20063;-80
2023/04/19 10:31:03;;;;;;;4.40;1.40;;;12.70;99.90;;;;;;5094255;28;20046;-80
2023/04/19 10:33:33;;;;;;;4.93;0.90;;;12.70;99.90;;;;;;5093917;28;20050;-82
2023/04/19 10:35:59;;;;;;;6.35;1.67;;;12.90;99.90;;;;;;5094268;28;20051;-82
2023/04/19 10:38:54;;;;;;;4.35;1.10;;;12.80;99.90;;;;;;5093611;28;20056;-81
2023/04/19 10:41:21;;;;;;;4.78;1.80;;;13.10;99.90;;;;;;5080936;28;20055;-81
2023/04/19 10:44:08;;;;;;;2.70;1.33;;;13.20;99.90;;;;;;5093826;28;20372;-81
2023/04/19 10:46:34;;;;;;;3.80;1.23;;;13.20;99.90;;;;;;5092851;28;20040;-81
2023/04/19 10:49:03;;;;;;;4.57;1.23;;;13.10;99.90;;;;;;5093838;28;20048;-81
2023/04/19 10:51:35;;;;;;;3.15;1.20;;;13.30;99.90;;;;;;5093608;28;20036;-82
2023/04/19 10:54:05;;;;;;;4.25;1.05;;;13.30;99.90;;;;;;5093651;28;20048;-84
2023/04/19 10:56:34;;;;;;;2.50;1.50;;;13.20;99.90;;;;;;5092604;28;20371;-81
2023/04/19 10:59:00;;;;;;;4.20;1.40;;;13.30;99.90;;;;;;5093964;28;20040;-81
2023/04/19 11:01:44;;;;;;;6.00;1.40;;;13.30;99.90;;;;;;5093852;28;20425;-77
2023/04/19 11:04:15;;;;;;;7.78;2.42;;;13.50;99.90;;;;;;5093934;28;20047;-78
2023/04/19 11:06:52;;;;;;;8.40;1.50;;;13.30;99.90;;;;;;5093610;28;20140;-81
2023/04/19 11:09:29;;;;;;;8.57;1.92;;;13.20;99.90;;;;;;5093558;28;20487;-80
2023/04/19 11:12:14;;;;;;;7.25;1.70;;;13.00;99.90;;;;;;5092453;28;20387;-80
2023/04/19 11:14:42;;;;;;;6.75;1.60;;;13.40;99.90;;;;;;5093583;28;20050;-80
2023/04/19 11:17:24;;;;;;;9.88;1.60;;;13.10;99.90;;;;;;5093747;28;20040;-80
2023/04/19 11:19:57;;;;;;;7.97;1.60;;;13.20;99.90;;;;;;5092665;28;20445;-79
2023/04/19 11:22:31;;;;;;;5.07;1.40;;;13.10;99.90;;;;;;5093128;28;20479;-81
2023/04/19 11:25:11;;;;;;;6.95;1.80;;;13.00;99.90;;;;;;5093676;28;20040;-80
2023/04/19 11:27:38;;;;;;;4.38;1.75;;;13.40;99.90;;;;;;5092341;28;20048;-84
2023/04/19 11:30:18;;;;;;;4.18;1.60;;;13.30;99.90;;;;;;5093400;28;20048;-84
2023/04/19 11:32:55;;;;;;;6.93;2.00;;;13.40;99.90;;;;;;5093361;28;20047;-83
2023/04/19 11:35:25;;;;;;;5.28;1.90;;;13.50;99.90;;;;;;5093363;28;20051;-83
2023/04/19 11:37:53;;;;;;;9.98;2.00;;;13.40;99.90;;;;;;5091546;28;20052;-85
2023/04/19 11:40:20;;;;;;;4.38;2.25;;;13.30;99.90;;;;;;5091633;28;20048;-83
2023/04/19 11:42:52;;;;;;;7.50;2.42;;;13.30;99.90;;;;;;5092840;28;20403;-83
2023/04/19 11:45:31;;;;;;;7.57;2.03;;;13.00;99.90;;;;;;5093452;28;20040;-83
2023/04/19 11:47:58;;;;;;;8.25;2.33;;;12.80;99.90;;;;;;5093134;28;20452;-83
2023/04/19 11:50:34;;;;;;;6.13;2.13;;;12.80;99.90;;;;;;5095249;28;20089;-82
2023/04/19 11:53:11;;;;;;;7.50;2.22;;;12.90;99.90;;;;;;5095984;28;20055;-82
2023/04/19 11:55:37;;;;;;;5.95;2.22;;;13.10;99.90;;;;;;5096399;28;20048;-82
2023/04/19 11:58:08;;;;;;;8.43;2.30;;;12.80;99.90;;;;;;5097265;28;20044;-84
2023/04/19 12:00:34;;;;;;;5.75;2.55;;;13.00;99.90;;;;;;5096924;28;20043;-86
2023/04/19 12:03:00;;;;;;;9.15;2.83;;;13.00;99.90;;;;;;5095979;28;20480;-85
2023/04/19 12:05:26;;;;;;;9.52;2.92;;;12.70;99.90;;;;;;5095417;28;20070;-83
2023/04/19 12:08:02;;;;;;;6.63;2.55;;;12.60;99.90;;;;;;5096719;28;20048;-83
2023/04/19 12:10:28;;;;;;;8.73;3.15;;;12.70;99.90;;;;;;5096739;28;20036;-83
2023/04/19 12:12:54;;;;;;;8.63;2.70;;;13.00;99.90;;;;;;5096847;28;20119;-83
2023/04/19 12:15:20;;;;;;;6.22;2.83;;;12.80;99.90;;;;;;5096619;28;20128;-80
2023/04/19 12:17:56;;;;;;;19.58;3.75;;;12.80;99.90;;;;;;5096645;28;20039;-79
2023/04/19 12:20:33;;;;;;;7.63;2.80;;;12.70;99.90;;;;;;5095539;28;20051;-82
2023/04/19 12:23:05;;;;;;;5.60;3.35;;;12.90;99.90;;;;;;5096447;28;20503;-82
2023/04/19 12:25:35;;;;;;;8.73;3.13;;;12.70;99.90;;;;;;5096737;28;20101;-81
2023/04/19 12:28:02;;;;;;;10.57;3.58;;;12.50;99.90;;;;;;5096654;28;20035;-81
2023/04/19 12:30:28;;;;;;;6.88;3.63;;;12.70;99.90;;;;;;5096374;28;20052;-82
2023/04/19 12:32:54;;;;;;;7.50;3.72;;;12.40;99.90;;;;;;5096370;28;20101;-84
2023/04/19 12:35:29;;;;;;;8.35;3.40;;;12.40;99.90;;;;;;5096507;28;20051;-82
2023/04/19 12:37:57;;;;;;;7.45;3.70;;;12.50;99.90;;;;;;5096412;28;20055;-81
2023/04/19 12:40:23;;;;;;;7.95;3.63;;;12.50;99.90;;;;;;5096394;28;20058;-82
2023/04/19 12:42:49;;;;;;;8.35;3.90;;;12.30;99.90;;;;;;5096380;28;20131;-82
2023/04/19 12:45:16;;;;;;;7.82;3.35;;;12.40;99.90;;;;;;5096093;28;20620;-79
2023/04/19 12:47:42;;;;;;;11.88;3.78;;;12.60;99.90;;;;;;5096415;28;20074;-81
2023/04/19 12:50:09;;;;;;;7.10;3.55;;;12.50;99.90;;;;;;5095968;28;20044;-81